Time;durP1;ratioP1;P1;durP2;ratioP2;P2;SDS_P1;SDS_P2;PMS_P1;PMS_P2;Temp;Humidity;BMP_temperature;BMP_pressure;BME280_temperature;BME280_humidity;BME280_pressure;Samples;Min_cycle;Max_cycle;Signal;HPM_P1;HPM_P2
2022/10/01 00:00:22;;;;;;;9.67;5.73;;;8.60;99.90;;;;;;4200767;28;21082;-76
2022/10/01 00:02:24;;;;;;;9.03;5.47;;;8.60;99.90;;;;;;4203576;28;20531;-76
2022/10/01 00:04:27;;;;;;;8.30;5.37;;;8.50;99.90;;;;;;4221423;28;20447;-76
2022/10/01 00:06:29;;;;;;;8.90;5.53;;;8.50;99.90;;;;;;4200530;28;20482;-76
2022/10/01 00:08:33;;;;;;;8.43;5.33;;;8.50;99.90;;;;;;4198603;28;20536;-76
2022/10/01 00:10:41;;;;;;;7.00;5.00;;;8.40;99.90;;;;;;4216654;28;20545;-76
2022/10/01 00:12:46;;;;;;;8.23;5.37;;;8.50;99.90;;;;;;4218384;28;20469;-76
2022/10/01 00:14:48;;;;;;;6.90;4.70;;;8.40;99.90;;;;;;4222630;28;20447;-76
2022/10/01 00:16:50;;;;;;;7.43;5.33;;;8.40;99.90;;;;;;4200602;28;20459;-76
2022/10/01 00:18:52;;;;;;;8.30;4.93;;;8.40;99.90;;;;;;4199852;28;21087;-76
2022/10/01 00:20:56;;;;;;;9.30;5.13;;;8.40;99.90;;;;;;4217825;28;20477;-76
2022/10/01 00:22:57;;;;;;;8.27;5.27;;;8.40;99.90;;;;;;4198887;28;20472;-76
2022/10/01 00:25:00;;;;;;;6.97;5.00;;;8.40;99.90;;;;;;4221590;28;21182;-75
2022/10/01 00:27:02;;;;;;;7.80;5.17;;;8.30;99.90;;;;;;4223306;28;20442;-76
2022/10/01 00:29:06;;;;;;;9.07;4.80;;;8.30;99.90;;;;;;4202163;28;20448;-76
2022/10/01 00:31:08;;;;;;;8.53;4.90;;;8.30;99.90;;;;;;4198072;28;20554;-77
2022/10/01 00:33:10;;;;;;;9.20;4.87;;;8.30;99.90;;;;;;4219542;28;20494;-76
2022/10/01 00:35:13;;;;;;;7.70;4.10;;;8.30;99.90;;;;;;4215994;28;20473;-76
2022/10/01 00:37:17;;;;;;;7.63;4.90;;;8.20;99.90;;;;;;4216224;28;20465;-75
2022/10/01 00:39:19;;;;;;;7.37;4.73;;;8.20;99.90;;;;;;4210899;28;20450;-76
2022/10/01 00:41:21;;;;;;;7.17;4.57;;;8.20;99.90;;;;;;4213479;28;20479;-76
2022/10/01 00:43:24;;;;;;;5.97;4.50;;;8.20;99.90;;;;;;4215029;28;20473;-77
2022/10/01 00:45:26;;;;;;;7.67;4.37;;;8.20;99.90;;;;;;4193581;28;21005;-77
2022/10/01 00:47:32;;;;;;;7.63;4.13;;;8.20;99.90;;;;;;4200296;28;20483;-76
2022/10/01 00:49:37;;;;;;;5.67;4.20;;;8.20;99.90;;;;;;4218628;28;20462;-77
2022/10/01 00:51:42;;;;;;;8.00;4.83;;;8.20;99.90;;;;;;4198273;28;20463;-76
2022/10/01 00:53:46;;;;;;;6.87;4.10;;;8.20;99.90;;;;;;4216573;28;20456;-77
2022/10/01 00:55:53;;;;;;;5.57;3.47;;;8.10;99.90;;;;;;4205417;28;20526;-77
2022/10/01 00:57:56;;;;;;;8.50;4.87;;;8.20;99.90;;;;;;4222289;28;20978;-76
2022/10/01 01:00:01;;;;;;;8.73;3.83;;;8.10;99.90;;;;;;4205721;28;21111;-76
2022/10/01 01:02:03;;;;;;;5.20;3.90;;;8.10;99.90;;;;;;4222986;28;20462;-76
2022/10/01 01:04:15;;;;;;;6.93;4.47;;;8.10;99.90;;;;;;4206135;28;20517;-77
2022/10/01 01:06:17;;;;;;;7.13;4.23;;;8.10;99.90;;;;;;4200181;28;20450;-76
2022/10/01 01:08:19;;;;;;;7.93;4.03;;;8.10;99.90;;;;;;4219551;28;20505;-76
2022/10/01 01:10:30;;;;;;;5.87;3.70;;;8.10;99.90;;;;;;4219119;28;20470;-76
2022/10/01 01:12:46;;;;;;;7.00;4.20;;;8.10;99.90;;;;;;4222250;28;20453;-75
2022/10/01 01:14:56;;;;;;;6.03;4.00;;;8.10;99.90;;;;;;4231362;28;20459;-75
2022/10/01 01:17:07;;;;;;;5.93;4.20;;;8.10;99.90;;;;;;4235958;28;20508;-76
2022/10/01 01:19:20;;;;;;;8.10;4.30;;;8.00;99.90;;;;;;4220413;28;20458;-75
2022/10/01 01:21:27;;;;;;;5.50;4.07;;;8.10;99.90;;;;;;4241527;28;20502;-75
2022/10/01 01:23:47;;;;;;;6.63;3.80;;;8.00;99.90;;;;;;4221972;28;20522;-76
2022/10/01 01:25:58;;;;;;;5.90;3.60;;;8.00;99.90;;;;;;4216695;28;20482;-76
2022/10/01 01:28:11;;;;;;;5.83;3.70;;;8.00;99.90;;;;;;4221230;28;20818;-77
2022/10/01 01:30:15;;;;;;;6.07;3.60;;;8.00;99.90;;;;;;4207114;28;20653;-75
2022/10/01 01:32:23;;;;;;;6.17;3.93;;;8.00;99.90;;;;;;4222591;28;20814;-76
2022/10/01 01:34:30;;;;;;;5.13;3.50;;;8.00;99.90;;;;;;4202082;28;20462;-76
2022/10/01 01:36:35;;;;;;;5.40;3.83;;;8.00;99.90;;;;;;4224215;28;20497;-75
2022/10/01 01:38:43;;;;;;;5.13;3.53;;;7.90;99.90;;;;;;4220238;28;20471;-75
2022/10/01 01:40:50;;;;;;;7.50;4.20;;;7.90;99.90;;;;;;4220794;28;20485;-75
2022/10/01 01:42:54;;;;;;;7.37;4.00;;;7.90;99.90;;;;;;4222635;28;20475;-76
2022/10/01 01:45:00;;;;;;;5.53;3.63;;;7.90;99.90;;;;;;4223647;28;20450;-75
2022/10/01 01:47:05;;;;;;;7.60;3.90;;;7.90;99.90;;;;;;4221243;28;20492;-75
2022/10/01 01:49:08;;;;;;;6.93;3.87;;;7.90;99.90;;;;;;4216544;28;20577;-76
2022/10/01 01:51:14;;;;;;;5.83;3.60;;;7.90;99.90;;;;;;4199327;28;20487;-76
2022/10/01 01:53:16;;;;;;;5.60;3.70;;;7.90;99.90;;;;;;4219283;28;20454;-77
2022/10/01 01:55:18;;;;;;;5.17;3.40;;;7.90;99.90;;;;;;4197472;28;20562;-77
2022/10/01 01:57:20;;;;;;;6.50;3.77;;;7.90;99.90;;;;;;4219216;28;20477;-77
2022/10/01 01:59:22;;;;;;;6.27;4.07;;;7.80;99.90;;;;;;4221228;28;21208;-76
2022/10/01 02:01:37;;;;;;;6.00;3.90;;;7.90;99.90;;;;;;4221092;28;20903;-76
2022/10/01 02:03:40;;;;;;;5.43;3.70;;;7.90;99.90;;;;;;4222395;28;20486;-78
2022/10/01 02:05:48;;;;;;;7.00;3.97;;;7.90;99.90;;;;;;4220751;28;20458;-76
2022/10/01 02:08:25;;;;;;;7.53;3.87;;;7.80;99.90;;;;;;4222260;28;20868;-76
2022/10/01 02:10:44;;;;;;;6.17;3.93;;;7.80;99.90;;;;;;4202801;28;21314;-77
2022/10/01 02:13:02;;;;;;;6.23;3.47;;;7.80;99.90;;;;;;4201632;28;20471;-75
2022/10/01 02:15:16;;;;;;;6.40;3.90;;;7.80;99.90;;;;;;4200906;28;20464;-75
2022/10/01 02:17:29;;;;;;;5.57;3.87;;;7.80;99.90;;;;;;4219244;28;20465;-76
2022/10/01 02:19:36;;;;;;;5.43;3.43;;;7.80;99.90;;;;;;4223300;28;20458;-75
2022/10/01 02:21:42;;;;;;;7.33;4.07;;;7.80;99.90;;;;;;4202954;28;20514;-77
2022/10/01 02:23:50;;;;;;;9.17;4.10;;;7.80;99.90;;;;;;4201736;28;20474;-75
2022/10/01 02:25:58;;;;;;;5.90;4.00;;;7.80;99.90;;;;;;4220854;28;20498;-76
2022/10/01 02:28:06;;;;;;;6.27;3.90;;;7.90;99.90;;;;;;4211186;28;20482;-76
2022/10/01 02:30:11;;;;;;;7.33;4.17;;;7.90;99.90;;;;;;4224162;28;20441;-77
2022/10/01 02:32:14;;;;;;;7.13;4.00;;;7.90;99.90;;;;;;4200500;28;20469;-76
2022/10/01 02:34:20;;;;;;;8.97;4.93;;;7.90;99.90;;;;;;4207605;28;21007;-76
2022/10/01 02:36:24;;;;;;;7.77;4.00;;;7.90;99.90;;;;;;4202421;28;20454;-75
2022/10/01 02:38:28;;;;;;;6.13;4.30;;;7.90;99.90;;;;;;4203509;28;20488;-76
2022/10/01 02:40:35;;;;;;;6.43;4.03;;;7.90;99.90;;;;;;4219316;28;20485;-75
2022/10/01 02:42:38;;;;;;;6.80;3.90;;;7.90;99.90;;;;;;4221156;28;20932;-76
2022/10/01 02:44:43;;;;;;;6.47;3.83;;;7.90;99.90;;;;;;4222230;28;20453;-76
2022/10/01 02:46:50;;;;;;;7.00;4.03;;;8.00;99.90;;;;;;4202513;28;20463;-75
2022/10/01 02:48:52;;;;;;;6.33;4.10;;;8.00;99.90;;;;;;4213263;28;20470;-76
2022/10/01 02:51:03;;;;;;;6.77;4.03;;;8.00;99.90;;;;;;4217984;28;20971;-76
2022/10/01 02:53:10;;;;;;;9.67;4.17;;;8.00;99.90;;;;;;4204054;28;20502;-76
2022/10/01 02:55:14;;;;;;;5.53;3.87;;;8.00;99.90;;;;;;4218906;28;20488;-74
2022/10/01 02:57:22;;;;;;;7.47;4.20;;;8.10;99.90;;;;;;4201750;28;20562;-75
2022/10/01 02:59:24;;;;;;;6.90;4.10;;;8.00;99.90;;;;;;4201461;28;20500;-76
2022/10/01 03:01:26;;;;;;;7.53;4.43;;;8.10;99.90;;;;;;4215278;28;20489;-75
2022/10/01 03:03:30;;;;;;;4.97;3.60;;;8.10;99.90;;;;;;4224515;28;20449;-75
2022/10/01 03:05:32;;;;;;;8.20;4.37;;;8.10;99.90;;;;;;4204662;28;20472;-75
2022/10/01 03:07:35;;;;;;;8.60;4.67;;;8.10;99.90;;;;;;4205913;28;20482;-76
2022/10/01 03:09:37;;;;;;;8.80;4.10;;;8.10;99.90;;;;;;4221855;28;20450;-75
2022/10/01 03:11:40;;;;;;;7.80;4.30;;;8.10;99.90;;;;;;4204626;28;20455;-76
2022/10/01 03:13:42;;;;;;;7.97;4.27;;;8.10;99.90;;;;;;4203599;28;20464;-76
2022/10/01 03:15:46;;;;;;;9.97;4.70;;;8.10;99.90;;;;;;4203825;28;20450;-76
2022/10/01 03:17:51;;;;;;;7.23;3.83;;;8.10;99.90;;;;;;4203021;28;20569;-76
2022/10/01 03:19:53;;;;;;;9.43;4.40;;;8.10;99.90;;;;;;4199972;28;20466;-75
2022/10/01 03:21:55;;;;;;;6.90;4.30;;;8.10;99.90;;;;;;4199508;28;20580;-76
2022/10/01 03:23:58;;;;;;;7.77;4.17;;;8.10;99.90;;;;;;4215792;28;20458;-75
2022/10/01 03:26:00;;;;;;;8.10;4.27;;;8.20;99.90;;;;;;4199400;28;20548;-76
2022/10/01 03:28:02;;;;;;;7.73;4.60;;;8.10;99.90;;;;;;4216507;28;20545;-75
2022/10/01 03:30:05;;;;;;;8.90;4.40;;;8.20;99.90;;;;;;4200603;28;20491;-75
2022/10/01 03:32:07;;;;;;;6.00;3.90;;;8.20;99.90;;;;;;4207723;28;20455;-75
2022/10/01 03:34:09;;;;;;;5.87;4.23;;;8.20;99.90;;;;;;4196813;28;20518;-75
2022/10/01 03:36:11;;;;;;;8.93;4.40;;;8.20;99.90;;;;;;4218883;28;20454;-75
2022/10/01 03:38:13;;;;;;;8.70;4.77;;;8.20;99.90;;;;;;4219394;28;20474;-76
2022/10/01 03:40:17;;;;;;;8.73;4.40;;;8.20;99.90;;;;;;4200213;28;20501;-75
2022/10/01 03:42:18;;;;;;;6.17;4.20;;;8.20;99.90;;;;;;4204443;28;20545;-77
2022/10/01 03:44:21;;;;;;;7.70;4.60;;;8.20;99.90;;;;;;4198534;28;20554;-76
2022/10/01 03:46:22;;;;;;;6.20;4.30;;;8.20;99.90;;;;;;4218276;28;20457;-76
2022/10/01 03:48:24;;;;;;;6.60;4.00;;;8.20;99.90;;;;;;4200061;28;20570;-76
2022/10/01 03:50:26;;;;;;;8.63;4.03;;;8.20;99.90;;;;;;4221239;28;20875;-76
2022/10/01 03:52:28;;;;;;;9.87;4.50;;;8.20;99.90;;;;;;4217777;28;20461;-76
2022/10/01 03:54:30;;;;;;;7.20;4.50;;;8.20;99.90;;;;;;4203279;28;20475;-75
2022/10/01 03:56:33;;;;;;;8.60;5.10;;;8.20;99.90;;;;;;4212886;28;20493;-76
2022/10/01 03:58:35;;;;;;;9.03;4.70;;;8.30;99.90;;;;;;4220874;28;20584;-76
2022/10/01 04:00:39;;;;;;;6.93;4.77;;;8.30;99.90;;;;;;4222838;28;20478;-76
2022/10/01 04:02:42;;;;;;;9.27;4.93;;;8.30;99.90;;;;;;4227963;28;20450;-76
2022/10/01 04:04:44;;;;;;;8.23;4.77;;;8.30;99.90;;;;;;4204104;28;20970;-77
2022/10/01 04:06:46;;;;;;;8.33;5.00;;;8.30;99.90;;;;;;4198335;28;21245;-77
2022/10/01 04:08:48;;;;;;;7.77;4.77;;;8.30;99.90;;;;;;4202061;28;20593;-75
2022/10/01 04:10:50;;;;;;;7.47;5.07;;;8.30;99.90;;;;;;4220070;28;20445;-77
2022/10/01 04:12:54;;;;;;;7.03;4.60;;;8.30;99.90;;;;;;4216500;28;20453;-76
2022/10/01 04:14:56;;;;;;;7.60;4.77;;;8.30;99.90;;;;;;4201133;28;20512;-77
2022/10/01 04:16:58;;;;;;;9.17;5.50;;;8.40;99.90;;;;;;4225968;28;20461;-76
2022/10/01 04:19:00;;;;;;;12.20;5.23;;;8.40;99.90;;;;;;4200533;28;20566;-75
2022/10/01 04:21:02;;;;;;;11.77;5.20;;;8.40;99.90;;;;;;4219883;28;20513;-74
2022/10/01 04:23:04;;;;;;;7.40;4.57;;;8.40;99.90;;;;;;4214766;28;20471;-74
2022/10/01 04:25:09;;;;;;;10.40;5.50;;;8.40;99.90;;;;;;4202961;28;20587;-77
2022/10/01 04:27:11;;;;;;;9.50;5.33;;;8.40;99.90;;;;;;4212819;28;20781;-76
2022/10/01 04:29:14;;;;;;;8.07;4.90;;;8.40;99.90;;;;;;4219661;28;20450;-76
2022/10/01 04:31:25;;;;;;;8.23;5.50;;;8.40;99.90;;;;;;4226589;28;20453;-76
2022/10/01 04:33:26;;;;;;;7.47;5.00;;;8.40;99.90;;;;;;4216027;28;20451;-76
2022/10/01 04:35:29;;;;;;;8.80;5.67;;;8.40;99.90;;;;;;4231803;28;20452;-76
2022/10/01 04:37:30;;;;;;;10.77;6.03;;;8.50;99.90;;;;;;4228091;28;20477;-76
2022/10/01 04:39:32;;;;;;;12.20;6.40;;;8.50;99.90;;;;;;4208914;28;20455;-76
2022/10/01 04:41:40;;;;;;;12.03;5.87;;;8.50;99.90;;;;;;4204682;28;20483;-77
2022/10/01 04:43:42;;;;;;;11.87;6.70;;;8.50;99.90;;;;;;4224802;28;20564;-77
2022/10/01 04:45:48;;;;;;;11.00;6.10;;;8.60;99.90;;;;;;4229661;28;20446;-76
2022/10/01 04:47:52;;;;;;;12.13;7.00;;;8.60;99.90;;;;;;4219856;28;20479;-76
2022/10/01 04:49:54;;;;;;;10.87;6.43;;;8.60;99.90;;;;;;4212484;28;20545;-76
2022/10/01 04:51:56;;;;;;;12.03;7.40;;;8.70;99.90;;;;;;4218204;28;20455;-76
2022/10/01 04:53:58;;;;;;;9.53;6.43;;;8.60;99.90;;;;;;4205394;28;20455;-77
2022/10/01 04:56:00;;;;;;;11.10;6.00;;;8.70;99.90;;;;;;4224016;28;20453;-77
2022/10/01 04:58:02;;;;;;;10.70;6.67;;;8.70;99.90;;;;;;4201907;28;20594;-77
2022/10/01 05:00:05;;;;;;;11.20;6.93;;;8.70;99.90;;;;;;4220192;28;20474;-76
2022/10/01 05:02:08;;;;;;;11.70;6.73;;;8.70;99.90;;;;;;4227404;28;20473;-75
2022/10/01 05:04:11;;;;;;;10.67;6.70;;;8.70;99.90;;;;;;4223728;28;20553;-76
2022/10/01 05:06:13;;;;;;;11.37;7.10;;;8.80;99.90;;;;;;4218322;28;20515;-76
2022/10/01 05:08:15;;;;;;;12.03;6.73;;;8.80;99.90;;;;;;4220037;28;20470;-76
2022/10/01 05:10:19;;;;;;;11.63;6.10;;;8.80;99.90;;;;;;4223252;28;20561;-76
2022/10/01 05:12:21;;;;;;;10.60;6.97;;;8.80;99.90;;;;;;4207835;28;20495;-76
2022/10/01 05:14:25;;;;;;;12.80;6.83;;;8.90;99.90;;;;;;4202861;28;20482;-76
2022/10/01 05:16:27;;;;;;;13.87;7.30;;;8.90;99.90;;;;;;4212335;28;20819;-76
2022/10/01 05:18:31;;;;;;;17.57;7.17;;;8.90;99.90;;;;;;4202307;28;20487;-77
2022/10/01 05:20:33;;;;;;;13.73;7.27;;;8.90;99.90;;;;;;4218252;28;20451;-76
2022/10/01 05:22:35;;;;;;;11.33;6.93;;;8.90;99.90;;;;;;4221200;28;21063;-76
2022/10/01 05:24:37;;;;;;;14.87;7.27;;;9.00;99.90;;;;;;4205877;28;20994;-76
2022/10/01 05:26:38;;;;;;;11.87;7.33;;;9.00;99.90;;;;;;4225283;28;20477;-78
2022/10/01 05:28:43;;;;;;;10.77;7.47;;;9.10;99.90;;;;;;4214597;28;20844;-77
2022/10/01 05:30:45;;;;;;;11.17;7.63;;;9.10;99.90;;;;;;4219804;28;20465;-76
2022/10/01 05:32:55;;;;;;;18.17;10.40;;;9.10;99.90;;;;;;4214572;28;20211;-79
2022/10/01 05:34:58;;;;;;;20.43;10.80;;;9.10;99.90;;;;;;4226169;28;20257;-79
2022/10/01 05:37:03;;;;;;;15.40;8.37;;;9.20;99.90;;;;;;4220467;28;20549;-77
2022/10/01 05:39:05;;;;;;;11.47;7.13;;;9.20;99.90;;;;;;4216704;28;20292;-79
2022/10/01 05:41:07;;;;;;;14.13;7.33;;;9.20;99.90;;;;;;4203506;28;20524;-78
2022/10/01 05:43:09;;;;;;;13.50;6.47;;;9.20;99.90;;;;;;4223687;28;20542;-77
2022/10/01 05:45:14;;;;;;;12.20;6.77;;;9.30;99.90;;;;;;4224586;28;20916;-75
2022/10/01 05:47:17;;;;;;;10.03;6.63;;;9.30;99.90;;;;;;4223266;28;20815;-76
2022/10/01 05:49:19;;;;;;;13.17;6.67;;;9.30;99.90;;;;;;4209648;28;20459;-77
2022/10/01 05:51:23;;;;;;;11.10;7.00;;;9.40;99.90;;;;;;4223411;28;20209;-76
2022/10/01 05:53:25;;;;;;;11.03;6.17;;;9.40;99.90;;;;;;4228803;28;20200;-79
2022/10/01 05:55:30;;;;;;;12.00;7.27;;;9.40;99.90;;;;;;4217762;28;20325;-75
2022/10/01 05:57:32;;;;;;;9.73;6.60;;;9.40;99.90;;;;;;4206965;28;20471;-75
2022/10/01 05:59:34;;;;;;;11.47;7.03;;;9.50;99.90;;;;;;4216466;28;20216;-76
2022/10/01 06:01:36;;;;;;;10.33;6.77;;;9.50;99.90;;;;;;4227026;28;20692;-77
2022/10/01 06:03:38;;;;;;;10.40;6.33;;;9.50;99.90;;;;;;4209961;28;20448;-76
2022/10/01 06:05:39;;;;;;;11.60;6.57;;;9.50;99.90;;;;;;4218069;28;20685;-78
2022/10/01 06:07:43;;;;;;;10.00;6.63;;;9.50;99.90;;;;;;4225723;28;20225;-76
2022/10/01 06:09:44;;;;;;;11.63;6.93;;;9.50;99.90;;;;;;4203498;28;20483;-77
2022/10/01 06:11:48;;;;;;;10.47;6.20;;;9.50;99.90;;;;;;4205980;28;20218;-77
2022/10/01 06:13:50;;;;;;;10.80;6.63;;;9.60;99.90;;;;;;4211179;28;20246;-80
2022/10/01 06:15:52;;;;;;;12.53;6.87;;;9.70;99.90;;;;;;4210839;28;20201;-80
2022/10/01 06:17:54;;;;;;;9.50;6.27;;;9.70;99.90;;;;;;4221091;28;20710;-78
2022/10/01 06:19:56;;;;;;;10.93;5.93;;;9.60;99.90;;;;;;4226972;28;20774;-77
2022/10/01 06:21:58;;;;;;;12.60;6.30;;;9.70;99.90;;;;;;4213617;28;20274;-78
2022/10/01 06:24:01;;;;;;;11.30;6.13;;;9.80;99.90;;;;;;4218450;28;20226;-79
2022/10/01 06:26:05;;;;;;;10.60;6.40;;;9.70;99.90;;;;;;4196910;28;20213;-76
2022/10/01 06:28:09;;;;;;;12.53;7.30;;;9.70;99.90;;;;;;4201605;28;20681;-77
2022/10/01 06:30:11;;;;;;;12.97;6.43;;;9.70;99.90;;;;;;4220641;28;20279;-77
2022/10/01 06:32:18;;;;;;;10.17;6.40;;;9.80;99.90;;;;;;4204728;28;20455;-78
2022/10/01 06:34:20;;;;;;;10.80;6.40;;;9.80;99.90;;;;;;4203427;28;20228;-76
2022/10/01 06:36:22;;;;;;;10.30;6.37;;;9.80;99.90;;;;;;4223827;28;20941;-77
2022/10/01 06:38:25;;;;;;;9.90;6.10;;;9.90;99.90;;;;;;4213378;28;20249;-77
2022/10/01 06:40:29;;;;;;;10.97;6.20;;;9.90;99.90;;;;;;4219924;28;20217;-78
2022/10/01 06:42:30;;;;;;;10.30;5.73;;;9.90;99.90;;;;;;4218580;28;20689;-80
2022/10/01 06:44:32;;;;;;;12.33;6.33;;;9.90;99.90;;;;;;4223269;28;20550;-78
2022/10/01 06:46:34;;;;;;;10.70;6.10;;;10.00;99.90;;;;;;4223827;28;20207;-77
2022/10/01 06:48:36;;;;;;;11.83;5.73;;;10.10;99.90;;;;;;4219564;28;20236;-78
2022/10/01 06:50:38;;;;;;;12.33;6.90;;;10.10;99.90;;;;;;4222293;28;20212;-77
2022/10/01 06:52:48;;;;;;;11.97;7.00;;;10.10;99.90;;;;;;4222599;28;20698;-76
2022/10/01 06:54:50;;;;;;;10.07;6.60;;;10.20;99.90;;;;;;4222595;28;20250;-76
2022/10/01 06:56:53;;;;;;;11.97;5.40;;;10.30;99.90;;;;;;4219578;28;20236;-78
2022/10/01 06:58:55;;;;;;;11.73;5.97;;;10.20;99.90;;;;;;4226820;28;20226;-79
2022/10/01 07:01:00;;;;;;;10.40;5.50;;;10.20;99.90;;;;;;4233622;28;20269;-76
2022/10/01 07:03:05;;;;;;;12.63;6.23;;;10.20;99.90;;;;;;4233006;28;20214;-78
2022/10/01 07:05:08;;;;;;;9.33;5.40;;;10.30;99.90;;;;;;4227847;28;20309;-81
2022/10/01 07:07:09;;;;;;;11.10;5.67;;;10.30;99.90;;;;;;4236268;28;20207;-76
2022/10/01 07:09:11;;;;;;;13.20;7.90;;;10.30;99.90;;;;;;4200513;28;20276;-78
2022/10/01 07:11:13;;;;;;;11.77;6.70;;;10.30;99.90;;;;;;4220250;28;20263;-76
2022/10/01 07:13:19;;;;;;;8.43;5.93;;;10.40;99.90;;;;;;4219798;28;20239;-76
2022/10/01 07:15:22;;;;;;;9.33;5.90;;;10.40;99.90;;;;;;4197370;28;20228;-78
2022/10/01 07:17:24;;;;;;;14.40;6.63;;;10.50;99.90;;;;;;4215179;28;20588;-76
2022/10/01 07:19:26;;;;;;;11.27;5.97;;;10.50;99.90;;;;;;4199700;28;20214;-76
2022/10/01 07:21:28;;;;;;;9.43;5.77;;;10.50;99.90;;;;;;4221980;28;20205;-77
2022/10/01 07:23:30;;;;;;;11.40;5.90;;;10.50;99.90;;;;;;4214879;28;20209;-77
2022/10/01 07:25:32;;;;;;;8.77;5.77;;;10.60;99.90;;;;;;4219017;28;20574;-77
2022/10/01 07:27:34;;;;;;;9.17;6.10;;;10.60;99.90;;;;;;4220292;28;20274;-76
2022/10/01 07:29:37;;;;;;;17.27;5.57;;;10.60;99.90;;;;;;4203986;28;20247;-76
2022/10/01 07:31:39;;;;;;;8.87;5.70;;;10.60;99.90;;;;;;4203963;28;20684;-77
2022/10/01 07:33:55;;;;;;;8.70;5.63;;;10.70;99.90;;;;;;4219522;28;20206;-76
2022/10/01 07:36:01;;;;;;;11.67;6.23;;;10.70;99.90;;;;;;4212548;28;20704;-76
2022/10/01 07:38:06;;;;;;;10.13;6.07;;;10.80;99.90;;;;;;4201319;28;20240;-76
2022/10/01 07:40:08;;;;;;;10.73;6.23;;;10.70;99.90;;;;;;4214941;28;20216;-75
2022/10/01 07:42:10;;;;;;;10.53;5.63;;;10.80;99.90;;;;;;4212331;28;20273;-78
2022/10/01 07:44:12;;;;;;;12.63;5.90;;;10.80;99.90;;;;;;4219842;28;20208;-77
2022/10/01 07:46:15;;;;;;;11.00;6.50;;;10.90;99.90;;;;;;4203260;28;20216;-76
2022/10/01 07:48:18;;;;;;;10.10;5.83;;;10.70;99.90;;;;;;4218037;28;20458;-76
2022/10/01 07:50:20;;;;;;;9.03;5.87;;;10.70;99.90;;;;;;4202959;28;20312;-76
2022/10/01 07:52:21;;;;;;;11.23;5.80;;;10.70;99.90;;;;;;4200925;28;20231;-77
2022/10/01 07:54:27;;;;;;;11.13;6.13;;;10.70;99.90;;;;;;4217042;28;20777;-77
2022/10/01 07:56:28;;;;;;;10.37;6.40;;;10.60;99.90;;;;;;4217702;28;20291;-75
2022/10/01 07:58:30;;;;;;;11.60;6.97;;;10.60;99.90;;;;;;4216667;28;20317;-76
2022/10/01 08:00:33;;;;;;;16.17;7.10;;;10.50;99.90;;;;;;4222785;28;20723;-76
2022/10/01 08:02:36;;;;;;;12.37;6.80;;;10.50;99.90;;;;;;4217770;28;20558;-77
2022/10/01 08:06:58;;;;;;;11.60;6.40;;;10.50;99.90;;;;;;4202664;28;20217;-76
2022/10/01 08:09:00;;;;;;;8.73;6.40;;;10.40;99.90;;;;;;4217832;28;20312;-76
2022/10/01 08:11:03;;;;;;;12.13;7.47;;;10.40;99.90;;;;;;4227020;28;20203;-76
2022/10/01 08:13:13;;;;;;;12.37;7.03;;;10.40;99.90;;;;;;4202478;28;20269;-76
2022/10/01 08:15:16;;;;;;;10.67;6.80;;;10.40;99.90;;;;;;4222759;28;20215;-76
2022/10/01 08:17:18;;;;;;;14.03;7.00;;;10.40;99.90;;;;;;4221388;28;20205;-75
2022/10/01 08:19:21;;;;;;;11.47;7.00;;;10.40;99.90;;;;;;4218696;28;20197;-75
2022/10/01 08:21:24;;;;;;;12.90;7.33;;;10.40;99.90;;;;;;4207042;28;20726;-76
2022/10/01 08:23:26;;;;;;;14.80;7.57;;;10.30;99.90;;;;;;4221174;28;20216;-76
2022/10/01 08:25:30;;;;;;;13.80;7.93;;;10.40;99.90;;;;;;4217287;28;20229;-77
2022/10/01 08:27:32;;;;;;;12.30;7.23;;;10.30;99.90;;;;;;4201840;28;20904;-76
2022/10/01 08:29:34;;;;;;;15.27;7.80;;;10.30;99.90;;;;;;4211637;28;20567;-76
2022/10/01 08:31:36;;;;;;;13.23;7.90;;;10.30;99.90;;;;;;4211387;28;20279;-76
2022/10/01 08:33:38;;;;;;;14.47;7.53;;;10.30;99.90;;;;;;4213758;28;20229;-77
2022/10/01 08:35:43;;;;;;;12.40;7.10;;;10.40;99.90;;;;;;4201639;28;20237;-78
2022/10/01 08:37:45;;;;;;;11.87;6.70;;;10.30;99.90;;;;;;4213743;28;20229;-76
2022/10/01 08:39:46;;;;;;;11.70;7.70;;;10.40;99.90;;;;;;4217742;28;20213;-77
2022/10/01 08:41:56;;;;;;;11.37;6.93;;;10.40;99.90;;;;;;4223056;28;20224;-77
2022/10/01 08:44:01;;;;;;;12.63;6.70;;;10.40;99.90;;;;;;4223330;28;20689;-76
2022/10/01 08:46:06;;;;;;;10.47;6.87;;;10.50;99.90;;;;;;4195749;28;20212;-77
2022/10/01 08:48:15;;;;;;;11.77;7.20;;;10.40;99.90;;;;;;4221413;28;20220;-76
2022/10/01 08:50:31;;;;;;;9.57;5.77;;;10.50;99.90;;;;;;4207158;28;20210;-79
2022/10/01 08:52:40;;;;;;;10.53;6.43;;;10.50;99.90;;;;;;4224704;28;20204;-76
2022/10/01 08:54:48;;;;;;;9.80;6.17;;;10.50;99.90;;;;;;4218939;28;20212;-76
2022/10/01 08:56:50;;;;;;;12.17;6.20;;;10.50;99.90;;;;;;4218742;28;20297;-77
2022/10/01 08:58:58;;;;;;;11.73;5.93;;;10.60;99.90;;;;;;4200101;28;20276;-78
2022/10/01 09:01:00;;;;;;;8.57;5.67;;;10.60;99.90;;;;;;4221370;28;20200;-74
2022/10/01 09:03:07;;;;;;;9.50;5.60;;;10.60;99.90;;;;;;4219548;28;20220;-73
2022/10/01 09:05:20;;;;;;;10.87;5.53;;;10.70;99.90;;;;;;4218421;28;20201;-77
2022/10/01 09:07:36;;;;;;;9.23;5.33;;;10.70;99.90;;;;;;4220370;28;21873;-75
2022/10/01 09:09:45;;;;;;;8.87;5.77;;;10.70;99.90;;;;;;4215642;28;20201;-75
2022/10/01 09:12:08;;;;;;;8.90;5.50;;;10.70;99.90;;;;;;4217799;28;20250;-73
2022/10/01 09:14:26;;;;;;;9.03;4.93;;;10.70;99.90;;;;;;4214143;28;20194;-74
2022/10/01 09:16:32;;;;;;;8.20;4.80;;;10.70;99.90;;;;;;4202696;28;20294;-77
2022/10/01 09:18:45;;;;;;;9.13;5.93;;;10.70;99.90;;;;;;4206835;28;20316;-74
2022/10/01 09:20:52;;;;;;;13.80;5.73;;;10.70;99.90;;;;;;4202788;28;20205;-76
2022/10/01 09:23:13;;;;;;;8.57;5.87;;;10.70;99.90;;;;;;4218089;28;21943;-76
2022/10/01 09:25:22;;;;;;;8.30;5.37;;;10.70;99.90;;;;;;4220439;28;20710;-74
2022/10/01 09:27:26;;;;;;;9.60;5.90;;;10.60;99.90;;;;;;4205564;28;20206;-75
2022/10/01 09:29:37;;;;;;;9.23;5.40;;;10.60;99.90;;;;;;4222894;28;20218;-74
2022/10/01 09:31:44;;;;;;;11.23;5.43;;;10.60;99.90;;;;;;4221120;28;20375;-75
2022/10/01 09:33:52;;;;;;;10.47;6.00;;;10.60;99.90;;;;;;4219383;28;20767;-74
2022/10/01 09:36:05;;;;;;;8.43;5.33;;;10.50;99.90;;;;;;4222015;28;20214;-75
2022/10/01 09:38:15;;;;;;;9.87;5.70;;;10.50;99.90;;;;;;4219034;28;20213;-76
2022/10/01 09:40:24;;;;;;;9.07;5.77;;;10.50;99.90;;;;;;4205263;28;20205;-75
2022/10/01 09:42:29;;;;;;;10.37;6.27;;;10.40;99.90;;;;;;4195827;28;20269;-75
2022/10/01 09:44:33;;;;;;;11.37;5.77;;;10.40;99.90;;;;;;4199404;28;20222;-74
2022/10/01 09:46:35;;;;;;;8.77;6.03;;;10.30;99.90;;;;;;4199194;28;20213;-73
2022/10/01 09:48:42;;;;;;;12.77;6.07;;;10.30;99.90;;;;;;4206100;28;20233;-75
2022/10/01 09:50:55;;;;;;;9.03;5.43;;;10.30;99.90;;;;;;4218670;28;20209;-75
2022/10/01 09:52:59;;;;;;;13.63;6.90;;;10.20;99.90;;;;;;4221554;28;20200;-75
2022/10/01 09:55:04;;;;;;;9.37;6.70;;;10.20;99.90;;;;;;4220928;28;20439;-74
2022/10/01 09:57:11;;;;;;;9.40;6.30;;;10.20;99.90;;;;;;4210364;28;20210;-74
2022/10/01 09:59:19;;;;;;;8.97;5.77;;;10.20;99.90;;;;;;4226221;28;20341;-74
2022/10/01 10:01:26;;;;;;;11.23;6.07;;;10.20;99.90;;;;;;4209616;28;20258;-74
2022/10/01 10:03:30;;;;;;;8.77;5.50;;;10.20;99.90;;;;;;4206486;28;20476;-74
2022/10/01 10:05:42;;;;;;;9.93;5.60;;;10.20;99.90;;;;;;4224451;28;20200;-74
2022/10/01 10:07:46;;;;;;;6.50;4.57;;;10.10;99.90;;;;;;4205052;28;20475;-75
2022/10/01 10:09:52;;;;;;;7.23;4.47;;;10.10;99.90;;;;;;4219842;28;20456;-74
2022/10/01 10:11:55;;;;;;;9.60;4.43;;;10.10;99.90;;;;;;4221212;28;21043;-74
2022/10/01 10:14:01;;;;;;;6.07;3.77;;;10.10;99.90;;;;;;4219909;28;20303;-74
2022/10/01 10:16:09;;;;;;;5.80;3.60;;;10.10;99.90;;;;;;4203240;28;20229;-74
2022/10/01 10:18:15;;;;;;;5.97;3.93;;;10.00;99.90;;;;;;4221718;28;20465;-75
2022/10/01 10:20:30;;;;;;;6.53;3.30;;;10.00;99.90;;;;;;4221126;28;20439;-75
2022/10/01 10:22:32;;;;;;;4.90;2.90;;;10.00;99.90;;;;;;4224543;28;20448;-75
2022/10/01 10:24:35;;;;;;;4.23;2.90;;;10.00;99.90;;;;;;4209076;28;21300;-76
2022/10/01 10:26:41;;;;;;;3.83;2.70;;;10.00;99.90;;;;;;4221476;28;20205;-75
2022/10/01 10:28:48;;;;;;;4.23;2.90;;;10.00;99.90;;;;;;4204004;28;20471;-75
2022/10/01 10:30:54;;;;;;;6.33;2.70;;;10.00;99.90;;;;;;4220099;28;20439;-76
2022/10/01 10:33:04;;;;;;;7.43;2.70;;;10.00;99.90;;;;;;4204487;28;20217;-76
2022/10/01 10:35:12;;;;;;;2.90;2.23;;;10.00;99.90;;;;;;4220688;28;20856;-76
2022/10/01 10:37:16;;;;;;;5.60;2.93;;;10.00;99.90;;;;;;4201999;28;20473;-76
2022/10/01 10:39:23;;;;;;;6.30;2.50;;;9.90;99.90;;;;;;4217438;28;20216;-76
2022/10/01 10:41:26;;;;;;;3.10;2.13;;;9.90;99.90;;;;;;4202326;28;20661;-76
2022/10/01 10:43:32;;;;;;;5.00;2.30;;;9.90;99.90;;;;;;4219314;28;20205;-76
2022/10/01 10:45:38;;;;;;;5.10;2.17;;;9.90;99.90;;;;;;4224531;28;20449;-77
2022/10/01 10:47:47;;;;;;;4.10;2.50;;;9.90;99.90;;;;;;4204218;28;20955;-77
2022/10/01 10:49:53;;;;;;;4.23;2.30;;;9.90;99.90;;;;;;4201154;28;20453;-77
2022/10/01 10:51:56;;;;;;;3.27;2.47;;;9.90;99.90;;;;;;4216919;28;20284;-77
2022/10/01 10:53:59;;;;;;;3.23;2.50;;;9.90;99.90;;;;;;4220849;28;20955;-77